createdAt,value
2023-04-18T00:00:43.306Z,96.95
2023-04-18T00:01:45.790Z,97.20
2023-04-18T00:02:47.549Z,97.12
2023-04-18T00:03:52.278Z,96.94
2023-04-18T00:04:54.572Z,96.87
2023-04-18T00:05:56.446Z,97.15
2023-04-18T00:06:58.176Z,97.21
2023-04-18T00:07:59.794Z,97.12
2023-04-18T00:09:01.886Z,97.42
2023-04-18T00:10:05.388Z,97.27
2023-04-18T00:11:07.086Z,97.46
2023-04-18T00:12:36.559Z,97.21
2023-04-18T00:13:41.074Z,97.30
2023-04-18T00:14:43.778Z,97.03
2023-04-18T00:15:46.327Z,96.82
2023-04-18T00:16:47.995Z,97.27
2023-04-18T00:17:49.792Z,97.06
2023-04-18T00:18:52.052Z,97.30
2023-04-18T00:19:56.355Z,97.28
2023-04-18T00:20:58.020Z,97.26
2023-04-18T00:21:59.919Z,97.06
2023-04-18T00:23:01.898Z,97.36
2023-04-18T00:24:03.605Z,97.11
2023-04-18T00:25:05.619Z,97.37
2023-04-18T00:26:07.239Z,97.03
2023-04-18T00:27:08.941Z,96.44
2023-04-18T00:28:10.623Z,97.19
2023-04-18T00:29:12.261Z,97.25
2023-04-18T00:30:14.267Z,96.76
2023-04-18T00:31:16.086Z,97.13
2023-04-18T00:32:18.024Z,96.95
2023-04-18T00:33:19.826Z,97.03
2023-04-18T00:34:21.732Z,96.94
2023-04-18T00:35:23.641Z,97.35
2023-04-18T00:36:25.364Z,96.96
2023-04-18T00:37:27.306Z,97.27
2023-04-18T00:38:29.001Z,97.59
2023-04-18T00:39:30.643Z,97.27
2023-04-18T00:40:32.517Z,97.10
2023-04-18T00:41:35.166Z,97.17
2023-04-18T00:42:36.837Z,97.44
2023-04-18T00:43:38.598Z,96.91
2023-04-18T00:44:40.978Z,96.87
2023-04-18T00:45:42.923Z,96.17
2023-04-18T00:46:45.550Z,96.88
2023-04-18T00:47:47.286Z,96.92
2023-04-18T00:48:49.396Z,96.56
2023-04-18T00:49:51.385Z,96.30
2023-04-18T00:50:53.751Z,97.01
2023-04-18T00:51:56.888Z,97.17
2023-04-18T00:52:58.585Z,97.46
2023-04-18T00:54:00.568Z,97.08
2023-04-18T00:55:04.848Z,96.75
2023-04-18T00:56:07.473Z,96.63
2023-04-18T00:57:09.355Z,96.89
2023-04-18T00:58:11.573Z,96.97
2023-04-18T00:59:13.722Z,96.42
2023-04-18T01:00:15.536Z,96.63
2023-04-18T01:01:18.126Z,96.81
2023-04-18T01:02:19.982Z,97.41
2023-04-18T01:03:22.841Z,97.35
2023-04-18T01:04:24.793Z,96.99
2023-04-18T01:05:26.868Z,97.03
2023-04-18T01:06:29.208Z,97.16
2023-04-18T01:07:33.383Z,97.05
2023-04-18T01:08:35.484Z,96.91
2023-04-18T01:09:37.382Z,96.96
2023-04-18T01:10:38.918Z,97.13
2023-04-18T01:11:40.491Z,97.19
2023-04-18T01:15:44.946Z,96.74
2023-04-18T01:16:48.437Z,96.73
2023-04-18T01:17:52.236Z,97.28
2023-04-18T01:18:55.434Z,96.61
2023-04-18T01:19:57.891Z,96.24
2023-04-18T01:21:01.842Z,96.56
2023-04-18T01:22:03.816Z,96.72
2023-04-18T01:23:05.796Z,96.73
2023-04-18T01:24:14.922Z,96.87
2023-04-18T01:25:19.018Z,96.83
2023-04-18T01:26:20.869Z,96.58
2023-04-18T01:27:23.098Z,96.77
2023-04-18T01:28:27.511Z,96.27
2023-04-18T01:29:30.784Z,96.75
2023-04-18T01:30:33.466Z,96.74
2023-04-18T01:31:36.390Z,96.04
2023-04-18T01:32:37.995Z,96.56
2023-04-18T01:33:39.674Z,96.57
2023-04-18T01:34:41.393Z,96.47
2023-04-18T01:35:43.018Z,96.66
2023-04-18T01:36:45.574Z,96.75
2023-04-18T01:37:47.148Z,96.82
2023-04-18T01:38:48.772Z,96.84
2023-04-18T01:39:50.466Z,96.67
2023-04-18T01:40:53.858Z,96.74
2023-04-18T01:41:56.952Z,97.06
2023-04-18T01:42:58.576Z,96.63
2023-04-18T01:44:00.544Z,97.02
2023-04-18T01:45:02.324Z,97.16
2023-04-18T01:46:03.956Z,96.47
2023-04-18T01:47:05.863Z,96.46
2023-04-18T01:48:07.722Z,95.75
2023-04-18T01:49:09.857Z,95.28
2023-04-18T01:50:11.677Z,95.29
2023-04-18T01:51:13.967Z,95.42
2023-04-18T01:52:17.047Z,95.36
2023-04-18T01:53:18.561Z,95.98
2023-04-18T01:54:20.193Z,95.02
2023-04-18T01:55:21.800Z,95.87
2023-04-18T01:56:23.433Z,95.03
2023-04-18T01:57:25.070Z,94.84
2023-04-18T01:58:26.872Z,94.87
2023-04-18T01:59:28.414Z,94.90
2023-04-18T02:00:30.045Z,94.84
2023-04-18T02:01:31.664Z,95.33
2023-04-18T02:02:34.061Z,95.13
2023-04-18T02:03:35.986Z,95.34
2023-04-18T02:04:37.835Z,95.33
2023-04-18T02:05:39.389Z,94.87
2023-04-18T02:06:43.005Z,94.82
2023-04-18T02:07:45.535Z,94.19
2023-04-18T02:08:47.109Z,94.39
2023-04-18T02:09:48.689Z,94.58
2023-04-18T02:10:50.463Z,94.83
2023-04-18T02:11:52.010Z,94.32
2023-04-18T02:12:53.625Z,94.79
2023-04-18T02:13:55.244Z,94.22
2023-04-18T02:14:56.858Z,94.47
2023-04-18T02:15:58.567Z,95.02
2023-04-18T02:17:00.184Z,94.62
2023-04-18T02:18:01.870Z,94.98
2023-04-18T02:19:04.377Z,95.28
2023-04-18T02:20:08.059Z,94.07
2023-04-18T02:21:11.165Z,94.34
2023-04-18T02:22:12.756Z,95.08
2023-04-18T02:23:14.303Z,94.70
2023-04-18T02:24:16.182Z,95.16
2023-04-18T02:25:18.538Z,94.56
2023-04-18T02:26:22.952Z,94.50
2023-04-18T02:27:24.567Z,94.83
2023-04-18T02:28:26.105Z,95.44
2023-04-18T02:29:27.915Z,95.02
2023-04-18T02:30:29.469Z,95.12
2023-04-18T02:31:32.253Z,94.87
2023-04-18T02:32:33.905Z,94.88
2023-04-18T02:33:35.642Z,94.84
2023-04-18T02:34:37.553Z,94.96
2023-04-18T02:35:40.637Z,95.75
2023-04-18T02:36:43.794Z,95.63
2023-04-18T02:37:45.428Z,95.19
2023-04-18T02:38:47.456Z,95.62
2023-04-18T02:39:49.139Z,95.82
2023-04-18T02:40:50.979Z,95.91
2023-04-18T02:41:52.639Z,95.81
2023-04-18T02:42:58.161Z,95.18
2023-04-18T02:43:59.821Z,95.00
2023-04-18T02:45:01.398Z,95.28
2023-04-18T02:46:03.016Z,95.64
2023-04-18T02:47:04.622Z,95.47
2023-04-18T02:48:06.281Z,95.58
2023-04-18T02:49:09.557Z,95.38
2023-04-18T02:50:11.497Z,95.69
2023-04-18T02:51:13.322Z,95.75
2023-04-18T02:52:15.058Z,95.86
2023-04-18T02:53:17.223Z,95.50
2023-04-18T02:54:26.398Z,95.68
2023-04-18T02:55:33.819Z,95.79
2023-04-18T02:56:39.854Z,95.57
2023-04-18T02:57:55.915Z,95.23
2023-04-18T02:59:07.136Z,95.34
2023-04-18T03:00:22.945Z,95.90
2023-04-18T03:01:44.656Z,95.22
2023-04-18T03:02:49.204Z,95.25
2023-04-18T03:04:01.640Z,95.18
2023-04-18T03:05:13.589Z,95.39
2023-04-18T03:06:15.175Z,95.99
2023-04-18T03:07:16.881Z,95.31
2023-04-18T03:08:18.671Z,95.10
2023-04-18T03:09:20.584Z,95.83
2023-04-18T03:10:28.843Z,95.53
2023-04-18T03:11:30.776Z,95.28
2023-04-18T03:12:32.617Z,95.59
2023-04-18T03:13:35.180Z,95.50
2023-04-18T03:14:37.910Z,95.38
2023-04-18T03:15:40.477Z,95.15
2023-04-18T03:16:43.232Z,95.40
2023-04-18T03:17:47.957Z,95.69
2023-04-18T03:18:50.760Z,95.28
2023-04-18T03:19:52.900Z,95.77
2023-04-18T03:20:55.269Z,95.22
2023-04-18T03:21:56.870Z,95.10
2023-04-18T03:22:58.442Z,95.37
2023-04-18T03:24:03.800Z,95.70
2023-04-18T03:25:07.582Z,95.63
2023-04-18T03:26:16.835Z,95.11
2023-04-18T03:27:19.616Z,95.20
2023-04-18T03:28:22.033Z,95.44
2023-04-18T03:29:24.630Z,95.48
2023-04-18T03:30:26.593Z,95.86
2023-04-18T03:31:29.902Z,95.30
2023-04-18T03:32:34.008Z,95.00
2023-04-18T03:33:36.147Z,95.54
2023-04-18T03:34:43.386Z,95.40
2023-04-18T03:35:45.624Z,95.99
2023-04-18T03:36:48.213Z,96.19
2023-04-18T03:37:51.198Z,95.93
2023-04-18T03:39:01.191Z,95.77
2023-04-18T03:40:03.814Z,95.74
2023-04-18T03:41:05.531Z,96.05
2023-04-18T03:42:09.646Z,95.43
2023-04-18T03:43:11.325Z,95.20
2023-04-18T03:44:13.244Z,95.55
2023-04-18T03:45:16.739Z,95.91
2023-04-18T03:46:22.037Z,95.60
2023-04-18T03:47:26.442Z,95.16
2023-04-18T03:48:35.722Z,95.27
2023-04-18T03:49:40.497Z,96.21
2023-04-18T03:50:43.037Z,95.79
2023-04-18T03:51:47.893Z,95.76
2023-04-18T03:52:49.627Z,95.79
2023-04-18T03:53:52.630Z,96.00
2023-04-18T03:54:54.230Z,96.21
2023-04-18T03:55:59.805Z,96.13
2023-04-18T03:57:15.632Z,96.04
2023-04-18T03:58:18.036Z,95.56
2023-04-18T03:59:20.290Z,95.51
2023-04-18T04:00:25.560Z,95.43
2023-04-18T04:01:34.356Z,95.69
2023-04-18T04:02:37.024Z,95.57
2023-04-18T04:03:38.871Z,95.83
2023-04-18T04:04:41.082Z,95.73
2023-04-18T04:05:44.988Z,95.55
2023-04-18T04:06:47.544Z,95.55
2023-04-18T04:07:51.081Z,95.19
2023-04-18T04:08:53.289Z,96.16
2023-04-18T04:09:58.786Z,95.90
2023-04-18T04:11:00.461Z,96.22
2023-04-18T04:12:03.052Z,96.09
2023-04-18T04:13:05.010Z,95.84
2023-04-18T04:14:09.202Z,96.04
2023-04-18T04:15:15.224Z,95.72
2023-04-18T04:16:23.591Z,95.84
2023-04-18T04:17:27.082Z,95.91
2023-04-18T04:18:31.761Z,95.70
2023-04-18T04:19:35.678Z,96.29
2023-04-18T04:20:46.911Z,95.53
2023-04-18T04:21:56.706Z,95.40
2023-04-18T04:23:00.078Z,95.71
2023-04-18T04:24:02.418Z,96.12
2023-04-18T04:25:10.420Z,96.61
2023-04-18T04:26:17.180Z,95.87
2023-04-18T04:27:26.968Z,95.39
2023-04-18T04:28:28.769Z,95.69
2023-04-18T04:29:36.105Z,95.53
2023-04-18T04:30:38.269Z,96.03
2023-04-18T04:31:39.995Z,95.76
2023-04-18T04:32:41.737Z,96.07
2023-04-18T04:33:43.678Z,96.43
2023-04-18T04:34:51.097Z,95.83
2023-04-18T04:35:53.516Z,95.99
2023-04-18T04:36:55.306Z,96.56
2023-04-18T04:37:58.927Z,96.13
2023-04-18T04:39:08.589Z,95.67
2023-04-18T04:40:27.674Z,95.72
2023-04-18T04:41:49.733Z,96.18
2023-04-18T04:42:54.226Z,95.49
2023-04-18T04:44:05.056Z,96.13
2023-04-18T04:45:09.463Z,96.01
2023-04-18T04:46:13.674Z,95.90
2023-04-18T04:47:17.612Z,96.25
2023-04-18T04:48:20.295Z,96.06
2023-04-18T04:49:22.120Z,95.89
2023-04-18T04:50:23.777Z,96.36
2023-04-18T04:51:25.828Z,95.73
2023-04-18T04:52:27.703Z,96.25
2023-04-18T04:53:32.656Z,95.51
2023-04-18T04:54:36.301Z,95.46
2023-04-18T04:55:40.489Z,95.83
2023-04-18T04:56:42.543Z,95.61
2023-04-18T04:57:45.021Z,96.02
2023-04-18T04:59:09.159Z,96.19
2023-04-18T05:00:21.078Z,95.70
2023-04-18T05:01:23.586Z,95.61
2023-04-18T05:02:25.544Z,95.20
2023-04-18T05:03:27.797Z,95.61
2023-04-18T05:04:29.747Z,95.71
2023-04-18T05:05:31.452Z,95.73
2023-04-18T05:06:33.111Z,96.09
2023-04-18T05:07:34.771Z,95.43
2023-04-18T05:08:36.442Z,95.68
2023-04-18T05:09:38.153Z,95.56
2023-04-18T05:10:39.833Z,95.84
2023-04-18T05:11:41.420Z,95.75
2023-04-18T05:12:43.080Z,96.45
2023-04-18T05:13:44.748Z,95.88
2023-04-18T05:14:46.334Z,95.12
2023-04-18T05:15:47.997Z,96.00
2023-04-18T05:16:49.698Z,95.51
2023-04-18T05:17:51.437Z,95.89
2023-04-18T05:18:53.088Z,95.69
2023-04-18T05:19:54.665Z,95.29
2023-04-18T05:20:56.833Z,95.78
2023-04-18T05:21:58.463Z,95.27
2023-04-18T05:23:00.283Z,95.30
2023-04-18T05:24:02.073Z,95.59
2023-04-18T05:25:04.071Z,95.51
2023-04-18T05:26:06.240Z,94.73
2023-04-18T05:27:08.015Z,95.13
2023-04-18T05:28:09.643Z,95.00
2023-04-18T05:29:11.304Z,95.66
2023-04-18T05:30:13.024Z,95.32
2023-04-18T05:31:14.697Z,94.91
2023-04-18T05:32:16.647Z,94.93
2023-04-18T05:33:18.264Z,94.95
2023-04-18T05:34:19.839Z,94.64
2023-04-18T05:35:21.454Z,95.13
2023-04-18T05:36:23.122Z,94.37
2023-04-18T05:37:25.266Z,94.58
2023-04-18T05:38:26.915Z,94.45
2023-04-18T05:39:28.540Z,94.64
2023-04-18T05:40:30.295Z,94.69
2023-04-18T05:41:31.974Z,95.04
2023-04-18T05:42:33.609Z,94.92
2023-04-18T05:43:35.298Z,94.63
2023-04-18T05:44:36.991Z,94.94
2023-04-18T05:45:38.825Z,94.95
2023-04-18T05:46:40.487Z,94.07
2023-04-18T05:47:42.231Z,94.27
2023-04-18T05:48:43.963Z,94.40
2023-04-18T05:49:45.554Z,94.92
2023-04-18T05:50:47.385Z,94.67
2023-04-18T05:51:49.872Z,94.76
2023-04-18T05:52:52.069Z,95.02
2023-04-18T05:53:53.674Z,94.89
2023-04-18T05:54:55.509Z,95.03
2023-04-18T05:55:58.979Z,94.24
2023-04-18T05:57:02.560Z,94.50
2023-04-18T05:58:05.604Z,94.94
2023-04-18T05:59:07.212Z,94.94
2023-04-18T06:00:11.983Z,94.28
2023-04-18T06:01:18.783Z,94.80
2023-04-18T06:02:21.102Z,94.22
2023-04-18T06:03:22.984Z,94.35
2023-04-18T06:04:24.978Z,94.11
2023-04-18T06:05:26.952Z,94.63
2023-04-18T06:06:28.877Z,94.05
2023-04-18T06:07:30.713Z,94.72
2023-04-18T06:08:32.316Z,93.12
2023-04-18T06:09:34.320Z,93.32
2023-04-18T06:10:37.711Z,93.32
2023-04-18T06:11:40.691Z,93.95
2023-04-18T06:12:42.760Z,93.66
2023-04-18T06:13:44.448Z,93.32
2023-04-18T06:14:46.105Z,93.81
2023-04-18T06:15:47.772Z,93.91
2023-04-18T06:16:49.868Z,94.42
2023-04-18T06:17:51.623Z,93.57
2023-04-18T06:18:53.362Z,93.92
2023-04-18T06:19:54.974Z,93.63
2023-04-18T06:20:56.604Z,93.46
2023-04-18T06:21:58.224Z,93.74
2023-04-18T06:22:59.843Z,93.49
2023-04-18T06:24:01.700Z,93.41
2023-04-18T06:25:03.615Z,93.33
2023-04-18T06:26:06.192Z,93.15
2023-04-18T06:27:14.946Z,93.43
2023-04-18T06:28:22.384Z,92.38
2023-04-18T06:29:24.562Z,92.27
2023-04-18T06:30:26.283Z,92.14
2023-04-18T06:31:27.993Z,91.91
2023-04-18T06:32:29.758Z,91.48
2023-04-18T06:33:31.486Z,91.74
2023-04-18T06:34:33.241Z,91.85
2023-04-18T06:35:35.031Z,92.54
2023-04-18T06:36:36.688Z,92.58
2023-04-18T06:37:38.437Z,91.28
2023-04-18T06:38:40.057Z,91.51
2023-04-18T06:39:41.635Z,91.48
2023-04-18T06:40:43.252Z,91.88
2023-04-18T06:41:44.911Z,92.08
2023-04-18T06:42:50.433Z,91.85
2023-04-18T06:45:01.102Z,91.63
2023-04-18T06:46:04.939Z,91.31
2023-04-18T06:47:06.576Z,90.78
2023-04-18T06:48:09.146Z,89.94
2023-04-18T06:49:11.009Z,89.40
2023-04-18T06:50:12.623Z,90.39
2023-04-18T06:51:14.316Z,90.38
2023-04-18T06:52:15.983Z,90.20
2023-04-18T06:53:17.942Z,90.11
2023-04-18T06:54:19.609Z,90.82
2023-04-18T06:55:21.565Z,90.14
2023-04-18T06:56:23.244Z,90.06
2023-04-18T06:57:25.855Z,90.22
2023-04-18T06:58:27.572Z,89.84
2023-04-18T06:59:29.222Z,90.37
2023-04-18T07:00:30.904Z,89.76
2023-04-18T07:01:35.489Z,89.95
2023-04-18T07:02:38.557Z,89.77
2023-04-18T07:03:40.397Z,88.87
2023-04-18T07:04:42.147Z,88.35
2023-04-18T07:05:43.862Z,88.63
2023-04-18T07:06:45.546Z,89.19
2023-04-18T07:07:47.252Z,89.44
2023-04-18T07:08:48.881Z,91.24
2023-04-18T07:09:50.528Z,87.55
2023-04-18T07:10:52.209Z,87.12
2023-04-18T07:11:53.853Z,87.98
2023-04-18T07:12:55.552Z,89.19
2023-04-18T07:13:57.251Z,87.02
2023-04-18T07:14:58.966Z,87.99
2023-04-18T07:16:01.602Z,86.56
2023-04-18T07:17:03.426Z,86.82
2023-04-18T07:18:05.244Z,87.14
2023-04-18T07:19:06.964Z,88.90
2023-04-18T07:20:09.168Z,87.46
2023-04-18T07:21:10.986Z,86.78
2023-04-18T07:22:12.613Z,86.75
2023-04-18T07:23:14.190Z,88.78
2023-04-18T07:24:16.152Z,86.66
2023-04-18T07:25:18.059Z,86.32
2023-04-18T07:26:19.733Z,86.37
2023-04-18T07:27:21.458Z,87.01
2023-04-18T07:28:23.132Z,86.54
2023-04-18T07:29:24.788Z,85.21
2023-04-18T07:30:26.486Z,83.89
2023-04-18T07:31:28.705Z,84.42
2023-04-18T07:32:30.741Z,84.69
2023-04-18T07:33:33.923Z,82.91
2023-04-18T07:34:36.709Z,83.19
2023-04-18T07:35:40.419Z,83.05
2023-04-18T07:36:42.397Z,83.42
2023-04-18T07:37:44.487Z,83.68
2023-04-18T07:38:46.722Z,83.90
2023-04-18T07:39:48.498Z,84.46
2023-04-18T07:40:57.910Z,84.23
2023-04-18T07:41:59.526Z,83.89
2023-04-18T07:43:01.271Z,84.13
2023-04-18T07:44:03.110Z,84.29
2023-04-18T07:45:05.409Z,82.07
2023-04-18T07:46:07.305Z,82.66
2023-04-18T07:47:10.342Z,82.47
2023-04-18T07:48:12.221Z,83.23
2023-04-18T07:49:14.153Z,82.64
2023-04-18T07:50:16.047Z,82.86
2023-04-18T07:51:17.797Z,81.34
2023-04-18T07:52:19.476Z,81.23
2023-04-18T07:53:21.251Z,80.76
2023-04-18T07:54:22.903Z,76.86
2023-04-18T07:55:24.556Z,74.94
2023-04-18T07:56:27.145Z,75.97
2023-04-18T07:57:28.768Z,77.93
2023-04-18T07:58:30.426Z,76.56
2023-04-18T07:59:32.249Z,77.56
2023-04-18T08:00:37.033Z,78.24
2023-04-18T08:01:38.740Z,78.79
2023-04-18T08:02:40.626Z,78.61
2023-04-18T08:03:42.548Z,78.47
2023-04-18T08:04:44.403Z,79.14
2023-04-18T08:05:46.136Z,78.58
2023-04-18T08:06:47.789Z,77.54
2023-04-18T08:07:49.406Z,78.21
2023-04-18T08:08:51.174Z,78.61
2023-04-18T08:09:52.828Z,77.38
2023-04-18T08:10:54.498Z,75.33
2023-04-18T08:11:56.862Z,76.53
2023-04-18T08:12:58.507Z,75.14
2023-04-18T08:14:00.427Z,74.80
2023-04-18T08:15:02.411Z,74.71
2023-04-18T08:16:04.130Z,72.87
2023-04-18T08:17:05.807Z,69.42
2023-04-18T08:18:07.479Z,68.08
2023-04-18T08:19:09.212Z,65.69
2023-04-18T08:20:12.951Z,65.73
2023-04-18T08:21:14.589Z,63.68
2023-04-18T08:22:16.188Z,63.91
2023-04-18T08:23:17.750Z,60.27
2023-04-18T08:24:19.426Z,59.71
2023-04-18T08:25:21.061Z,60.07
2023-04-18T08:26:22.755Z,61.73
2023-04-18T08:27:24.371Z,63.22
2023-04-18T08:28:26.074Z,63.59
2023-04-18T08:29:27.839Z,63.69
2023-04-18T08:30:30.065Z,65.87
2023-04-18T08:31:31.846Z,67.10
2023-04-18T08:32:33.801Z,66.30
2023-04-18T08:33:35.664Z,67.63
2023-04-18T08:34:38.143Z,63.83
2023-04-18T08:35:39.817Z,62.95
2023-04-18T08:36:41.460Z,65.53
2023-04-18T08:37:43.494Z,66.54
2023-04-18T08:38:45.660Z,68.33
2023-04-18T08:39:47.343Z,69.68
2023-04-18T08:40:48.987Z,68.69
2023-04-18T08:41:56.880Z,68.56
2023-04-18T08:43:00.423Z,69.48
2023-04-18T08:44:02.284Z,70.63
2023-04-18T08:45:05.650Z,70.30
2023-04-18T08:46:08.033Z,71.47
2023-04-18T08:47:09.987Z,70.85
2023-04-18T08:48:14.177Z,69.87
2023-04-18T08:49:16.227Z,70.43
2023-04-18T08:50:18.461Z,70.81
2023-04-18T08:51:20.103Z,70.36
2023-04-18T08:52:23.223Z,70.46
2023-04-18T08:53:26.676Z,70.45
2023-04-18T08:54:30.507Z,70.44
2023-04-18T08:55:33.696Z,71.36
2023-04-18T08:56:37.525Z,71.99
2023-04-18T08:57:39.820Z,72.42
2023-04-18T08:58:41.480Z,71.83
2023-04-18T08:59:47.128Z,71.24
2023-04-18T09:00:54.013Z,70.00
2023-04-18T09:01:57.554Z,71.18
2023-04-18T09:02:59.540Z,71.57
2023-04-18T09:04:01.276Z,72.03
2023-04-18T09:05:16.599Z,72.81
2023-04-18T09:06:20.822Z,72.99
2023-04-18T09:07:29.278Z,74.02
2023-04-18T09:08:30.949Z,74.52
2023-04-18T09:09:53.980Z,74.05
2023-04-18T09:10:56.252Z,74.44
2023-04-18T09:12:08.784Z,73.72
2023-04-18T09:13:11.214Z,72.25
2023-04-18T09:14:24.579Z,71.75
2023-04-18T09:15:27.395Z,72.90
2023-04-18T09:16:45.213Z,71.88
2023-04-18T09:17:50.963Z,71.70
2023-04-18T09:19:12.201Z,72.69
2023-04-18T09:20:15.773Z,71.82
2023-04-18T09:21:21.322Z,73.83
2023-04-18T09:22:22.926Z,74.15
2023-04-18T09:23:26.100Z,73.82
2023-04-18T09:24:28.952Z,74.59
2023-04-18T09:25:39.078Z,75.03
2023-04-18T09:26:43.200Z,74.63
2023-04-18T09:27:44.843Z,74.61
2023-04-18T09:28:53.844Z,74.32
2023-04-18T09:29:57.762Z,73.64
2023-04-18T09:31:15.432Z,72.88
2023-04-18T09:32:29.246Z,74.01
2023-04-18T09:33:34.583Z,73.00
2023-04-18T09:34:42.402Z,73.92
2023-04-18T09:35:44.199Z,73.83
2023-04-18T09:36:45.948Z,73.20
2023-04-18T09:37:51.131Z,74.14
2023-04-18T09:38:56.300Z,73.84
2023-04-18T09:39:58.486Z,74.02
2023-04-18T09:41:10.593Z,73.91
2023-04-18T09:42:12.814Z,73.59
2023-04-18T09:43:19.350Z,73.93
2023-04-18T09:44:21.335Z,74.04
2023-04-18T09:45:24.017Z,73.88
2023-04-18T09:46:27.303Z,74.59
2023-04-18T09:47:29.349Z,74.46
2023-04-18T09:48:31.459Z,74.28
2023-04-18T09:49:33.220Z,74.16
2023-04-18T09:50:35.861Z,74.67
2023-04-18T09:51:38.503Z,75.22
2023-04-18T09:52:41.669Z,74.79
2023-04-18T09:53:44.904Z,74.66
2023-04-18T09:54:48.810Z,75.27
2023-04-18T09:55:55.555Z,74.80
2023-04-18T09:56:59.667Z,75.31
2023-04-18T09:58:04.168Z,74.94
2023-04-18T09:59:09.611Z,75.37
2023-04-18T10:00:17.679Z,75.92
2023-04-18T10:01:19.544Z,75.46
2023-04-18T10:02:23.012Z,75.51
2023-04-18T10:03:28.958Z,75.64
2023-04-18T10:04:31.293Z,75.74
2023-04-18T10:05:34.755Z,74.68
2023-04-18T10:06:39.765Z,74.30
2023-04-18T10:07:47.658Z,74.79
2023-04-18T10:08:50.729Z,75.78
2023-04-18T10:09:52.559Z,74.30
2023-04-18T10:10:55.971Z,74.75
2023-04-18T10:11:58.556Z,76.41
2023-04-18T10:13:02.126Z,74.92
2023-04-18T10:14:07.154Z,75.34
2023-04-18T10:15:10.230Z,75.23
2023-04-18T10:16:12.759Z,75.88
2023-04-18T10:17:14.437Z,74.01
2023-04-18T10:18:19.086Z,73.63
2023-04-18T10:19:29.566Z,74.96
2023-04-18T10:20:32.683Z,75.78
2023-04-18T10:21:34.349Z,72.22
2023-04-18T10:22:36.612Z,72.43
2023-04-18T10:23:39.497Z,73.69
2023-04-18T10:24:53.794Z,71.72
2023-04-18T10:25:55.713Z,71.55
2023-04-18T10:26:58.054Z,70.86
2023-04-18T10:28:03.024Z,72.09
2023-04-18T10:29:04.849Z,72.48
2023-04-18T10:30:08.970Z,71.75
2023-04-18T10:31:11.667Z,72.27
2023-04-18T10:32:13.224Z,72.57
2023-04-18T10:33:33.491Z,73.46
2023-04-18T10:34:37.803Z,73.89
2023-04-18T10:36:16.877Z,72.90
2023-04-18T10:37:19.046Z,73.66
2023-04-18T10:38:23.514Z,73.72
2023-04-18T10:39:26.033Z,72.89
2023-04-18T10:40:34.129Z,73.06
2023-04-18T10:41:49.485Z,73.26
2023-04-18T10:42:52.094Z,73.61
2023-04-18T10:44:08.260Z,73.70
2023-04-18T10:45:21.003Z,73.66
2023-04-18T10:46:31.850Z,73.88
2023-04-18T10:47:34.451Z,73.24
2023-04-18T10:48:39.128Z,72.75
2023-04-18T10:49:53.494Z,74.00
2023-04-18T10:51:15.093Z,73.18
2023-04-18T10:52:16.924Z,73.18
2023-04-18T10:53:18.536Z,72.98
2023-04-18T10:54:21.840Z,73.70
2023-04-18T10:55:27.385Z,73.40
2023-04-18T10:56:29.122Z,72.96
2023-04-18T10:57:44.926Z,72.05
2023-04-18T10:58:50.918Z,71.32
2023-04-18T10:59:52.926Z,70.41
2023-04-18T11:00:55.085Z,70.35
2023-04-18T11:02:17.891Z,70.45
2023-04-18T11:03:19.583Z,69.96
2023-04-18T11:04:21.441Z,69.93
2023-04-18T11:05:28.247Z,69.39
2023-04-18T11:06:31.261Z,69.72
2023-04-18T11:07:38.001Z,69.65
2023-04-18T11:08:39.577Z,69.21
2023-04-18T11:09:41.217Z,69.98
2023-04-18T11:10:43.557Z,69.72
2023-04-18T11:11:45.305Z,68.42
2023-04-18T11:12:47.234Z,67.11
2023-04-18T11:14:00.257Z,66.40
2023-04-18T11:15:04.611Z,65.62
2023-04-18T11:16:06.646Z,65.96
2023-04-18T11:17:28.512Z,64.82
2023-04-18T11:18:41.168Z,64.84
2023-04-18T11:19:43.283Z,64.55
2023-04-18T11:20:49.882Z,64.29
2023-04-18T11:21:51.811Z,65.00
2023-04-18T11:22:54.662Z,65.40
2023-04-18T11:23:56.500Z,65.38
2023-04-18T11:25:07.153Z,64.40
2023-04-18T11:26:08.775Z,65.43
2023-04-18T11:27:11.477Z,64.38
2023-04-18T11:28:13.634Z,64.17
2023-04-18T11:29:17.960Z,65.04
2023-04-18T11:30:19.603Z,64.29
2023-04-18T11:31:24.148Z,64.93
2023-04-18T11:32:25.940Z,64.31
2023-04-18T11:33:28.725Z,64.67
2023-04-18T11:34:31.531Z,65.27
2023-04-18T11:35:40.008Z,64.62
2023-04-18T11:36:41.541Z,64.28
2023-04-18T11:37:45.596Z,64.65
2023-04-18T11:38:47.261Z,64.95
2023-04-18T11:39:49.015Z,65.24
2023-04-18T11:40:51.010Z,65.75
2023-04-18T11:41:53.164Z,65.91
2023-04-18T11:42:55.356Z,66.96
2023-04-18T11:43:57.048Z,66.72
2023-04-18T11:44:58.735Z,65.67
2023-04-18T11:46:00.535Z,65.58
2023-04-18T11:47:02.210Z,66.66
2023-04-18T11:48:04.001Z,65.94
2023-04-18T11:49:06.121Z,66.94
2023-04-18T11:50:09.927Z,65.87
2023-04-18T11:51:38.671Z,66.35
2023-04-18T11:52:42.478Z,65.37
2023-04-18T11:53:44.236Z,65.65
2023-04-18T11:54:46.066Z,65.26
2023-04-18T11:55:55.680Z,65.24
2023-04-18T11:56:57.758Z,65.78
2023-04-18T11:58:01.466Z,66.14
2023-04-18T11:59:09.587Z,65.62
2023-04-18T12:00:12.526Z,66.17
2023-04-18T12:01:22.157Z,66.84
2023-04-18T12:02:26.908Z,67.20
2023-04-18T12:03:29.744Z,67.31
2023-04-18T12:04:52.036Z,68.07
2023-04-18T12:06:01.387Z,67.94
2023-04-18T12:07:03.699Z,68.27
2023-04-18T12:08:09.129Z,68.51
2023-04-18T12:09:14.416Z,68.52
2023-04-18T12:10:22.063Z,68.12
2023-04-18T12:11:23.676Z,68.22
2023-04-18T12:12:25.559Z,68.71
2023-04-18T12:13:32.479Z,68.27
2023-04-18T12:14:35.780Z,68.51
2023-04-18T12:15:40.205Z,69.94
2023-04-18T12:16:41.923Z,70.04
2023-04-18T12:17:44.599Z,68.92
2023-04-18T12:18:49.344Z,69.69
2023-04-18T12:19:53.571Z,69.60
2023-04-18T12:20:55.224Z,67.24
2023-04-18T12:22:01.368Z,68.08
2023-04-18T12:23:03.670Z,67.81
2023-04-18T12:24:18.257Z,67.55
2023-04-18T12:25:26.925Z,67.29
2023-04-18T12:26:29.185Z,67.07
2023-04-18T12:27:52.389Z,67.56
2023-04-18T12:28:54.211Z,67.30
2023-04-18T12:29:55.855Z,66.85
2023-04-18T12:30:57.643Z,66.36
2023-04-18T12:31:59.384Z,66.87
2023-04-18T12:33:02.688Z,67.82
2023-04-18T12:34:04.384Z,66.39
2023-04-18T12:35:06.685Z,67.56
2023-04-18T12:36:09.068Z,68.76
2023-04-18T12:37:10.627Z,69.77
2023-04-18T12:38:12.280Z,70.13
2023-04-18T12:39:13.954Z,70.41
2023-04-18T12:40:16.079Z,70.02
2023-04-18T12:41:17.715Z,71.21
2023-04-18T12:42:19.348Z,72.07
2023-04-18T12:43:21.102Z,71.16
2023-04-18T12:44:24.623Z,71.37
2023-04-18T12:45:26.392Z,70.43
2023-04-18T12:46:28.156Z,70.79
2023-04-18T12:47:30.090Z,71.80
2023-04-18T12:48:31.730Z,70.88
2023-04-18T12:49:33.425Z,69.46
2023-04-18T12:50:35.071Z,69.21
2023-04-18T12:51:36.747Z,69.28
2023-04-18T12:52:40.644Z,69.20
2023-04-18T12:53:42.299Z,68.83
2023-04-18T12:54:44.001Z,69.32
2023-04-18T12:55:45.821Z,69.99
2023-04-18T12:56:47.482Z,68.36
2023-04-18T12:57:51.372Z,69.12
2023-04-18T12:58:52.986Z,69.32
2023-04-18T12:59:54.723Z,70.01
2023-04-18T13:00:57.680Z,69.17
2023-04-18T13:01:59.474Z,69.90
2023-04-18T13:03:01.526Z,68.25
2023-04-18T13:04:11.927Z,67.97
2023-04-18T13:05:16.531Z,68.03
2023-04-18T13:06:18.140Z,68.46
2023-04-18T13:07:19.824Z,68.69
2023-04-18T13:08:22.868Z,67.56
2023-04-18T13:09:26.748Z,67.91
2023-04-18T13:10:28.482Z,68.10
2023-04-18T13:11:30.119Z,69.44
2023-04-18T13:12:31.754Z,69.13
2023-04-18T13:13:35.705Z,68.69
2023-04-18T13:14:37.419Z,69.35
2023-04-18T13:15:39.230Z,69.13
2023-04-18T13:16:43.581Z,68.89
2023-04-18T13:17:45.937Z,68.45
2023-04-18T13:18:47.613Z,68.79
2023-04-18T13:19:49.303Z,69.48
2023-04-18T13:20:50.970Z,67.92
2023-04-18T13:21:53.357Z,68.14
2023-04-18T13:22:55.061Z,67.38
2023-04-18T13:23:56.727Z,67.62
2023-04-18T13:24:58.432Z,68.61
2023-04-18T13:26:00.041Z,68.62
2023-04-18T13:27:03.203Z,68.88
2023-04-18T13:28:04.980Z,68.54
2023-04-18T13:29:06.662Z,66.87
2023-04-18T13:30:10.393Z,67.65
2023-04-18T13:31:12.268Z,68.15
2023-04-18T13:32:14.008Z,66.69
2023-04-18T13:33:16.946Z,66.05
2023-04-18T13:34:18.602Z,65.75
2023-04-18T13:35:20.431Z,65.86
2023-04-18T13:36:22.184Z,66.33
2023-04-18T13:37:24.267Z,66.17
2023-04-18T13:38:27.502Z,67.41
2023-04-18T13:39:31.840Z,66.79
2023-04-18T13:40:33.582Z,66.06
2023-04-18T13:41:35.880Z,66.72
2023-04-18T13:42:38.648Z,68.09